首页
METAR-TAF:

METAR-TAF

机场 :

Dease Lake, 不列颠哥伦比亚, 加拿大

纬度: 58-25-20N, 经度: 130-01-53W, 海拔: 803米

当前天气观测

该预报发布于1小时和5分钟前的17:00 UTC
风速9节,风向东转东北
温度 -19°C
湿度 59%
气压 1018 hPa
能見度: 14.5公里
天空无云

METAR: CYDL 031700Z AUTO 07009KT 9SM CLR M19/M25 A3005 RMK SLP235

时间: 11:05 (18:05 UTC)

预报

该预报发布于27分钟前的17:38 UTC
预报有效从03日的 18点(UTC)到 03日的 24点(UTC)
风速8节,风向东转东北
能見度: 10公里
天空无云

TAF: CYDL 031738Z 0318/0324 07008KT P6SM SKC RMK FCST BASED ON AUTO OBS. NXT FCST WILL BE ISSUED AT 041245Z

超过4000个机场的气象观测和天气预报(METAR&TAF报告)。

可查询的气象台以黄色和红色小点在地图上表示。

将鼠标移到小点上方,可查看气象台名称。

然后点击查看天气观测和预报。

如需切换地图:点击带黑十字的绿色按钮放大地图;点击带横线的绿色按钮缩小地图;或者点击绿色箭头查看邻近地区的地图。


METAR-TAF: